sensor_id;sensor_type;location;lat;lon;timestamp;pressure;altitude;pressure_sealevel;temperature;humidity
64792;BME280;51226;47.504;19.074;2022-09-09T00:03:02;99924.31;;;20.36;71.39
64792;BME280;51226;47.504;19.074;2022-09-09T00:06:53;99926.94;;;20.38;70.98
64792;BME280;51226;47.504;19.074;2022-09-09T00:10:14;99924.34;;;20.33;69.80
64792;BME280;51226;47.504;19.074;2022-09-09T00:13:25;99918.13;;;20.33;70.14
64792;BME280;51226;47.504;19.074;2022-09-09T00:16:30;99913.00;;;20.17;70.45
64792;BME280;51226;47.504;19.074;2022-09-09T00:19:38;99912.94;;;20.24;70.00
64792;BME280;51226;47.504;19.074;2022-09-09T00:22:55;99924.47;;;20.18;70.41
64792;BME280;51226;47.504;19.074;2022-09-09T00:32:19;99936.94;;;20.05;71.34
64792;BME280;51226;47.504;19.074;2022-09-09T00:35:24;99933.44;;;20.03;71.11
64792;BME280;51226;47.504;19.074;2022-09-09T00:44:37;99935.19;;;20.01;70.38
64792;BME280;51226;47.504;19.074;2022-09-09T00:47:44;99944.94;;;19.93;70.81
64792;BME280;51226;47.504;19.074;2022-09-09T00:50:53;99931.72;;;19.93;71.18
64792;BME280;51226;47.504;19.074;2022-09-09T01:09:31;99955.59;;;19.90;71.92
64792;BME280;51226;47.504;19.074;2022-09-09T01:12:39;99957.31;;;19.91;71.98
64792;BME280;51226;47.504;19.074;2022-09-09T01:15:44;99967.03;;;19.93;71.81
64792;BME280;51226;47.504;19.074;2022-09-09T01:18:49;99959.97;;;19.92;71.68
64792;BME280;51226;47.504;19.074;2022-09-09T01:22:03;99955.53;;;19.94;71.17
64792;BME280;51226;47.504;19.074;2022-09-09T01:28:28;99965.25;;;19.95;71.60
64792;BME280;51226;47.504;19.074;2022-09-09T01:31:34;99968.00;;;19.83;71.65
64792;BME280;51226;47.504;19.074;2022-09-09T01:34:39;99966.19;;;19.88;71.85
64792;BME280;51226;47.504;19.074;2022-09-09T01:37:43;99966.19;;;19.88;72.05
64792;BME280;51226;47.504;19.074;2022-09-09T01:40:46;99967.94;;;19.86;72.08
64792;BME280;51226;47.504;19.074;2022-09-09T01:43:49;99959.91;;;20.05;70.01
64792;BME280;51226;47.504;19.074;2022-09-09T01:46:53;99961.84;;;19.78;71.16
64792;BME280;51226;47.504;19.074;2022-09-09T01:49:55;99956.53;;;19.79;72.06
64792;BME280;51226;47.504;19.074;2022-09-09T01:52:59;99956.56;;;19.78;71.41
64792;BME280;51226;47.504;19.074;2022-09-09T01:56:07;99968.00;;;19.72;71.75
64792;BME280;51226;47.504;19.074;2022-09-09T01:59:24;99973.31;;;19.78;70.54
64792;BME280;51226;47.504;19.074;2022-09-09T02:05:39;99967.22;;;19.58;71.99
64792;BME280;51226;47.504;19.074;2022-09-09T02:08:48;99968.97;;;19.57;72.15
64792;BME280;51226;47.504;19.074;2022-09-09T02:11:56;99961.03;;;19.59;72.47
64792;BME280;51226;47.504;19.074;2022-09-09T02:15:06;99966.28;;;19.65;72.83
64792;BME280;51226;47.504;19.074;2022-09-09T02:18:13;99978.63;;;19.66;73.01
64792;BME280;51226;47.504;19.074;2022-09-09T02:21:18;99982.16;;;19.70;72.94
64792;BME280;51226;47.504;19.074;2022-09-09T02:24:21;99979.50;;;19.70;72.58
64792;BME280;51226;47.504;19.074;2022-09-09T02:27:25;99984.75;;;19.73;72.17
64792;BME280;51226;47.504;19.074;2022-09-09T02:30:28;99974.16;;;19.74;72.46
64792;BME280;51226;47.504;19.074;2022-09-09T02:33:41;99979.47;;;19.73;72.01
64792;BME280;51226;47.504;19.074;2022-09-09T02:36:45;99981.22;;;19.82;71.85
64792;BME280;51226;47.504;19.074;2022-09-09T02:39:49;99983.03;;;19.70;72.32
64792;BME280;51226;47.504;19.074;2022-09-09T02:42:53;99981.31;;;19.65;72.51
64792;BME280;51226;47.504;19.074;2022-09-09T02:49:03;99988.31;;;19.67;72.48
64792;BME280;51226;47.504;19.074;2022-09-09T02:52:11;99988.31;;;19.69;72.55
64792;BME280;51226;47.504;19.074;2022-09-09T02:55:23;99977.75;;;19.61;72.56
64792;BME280;51226;47.504;19.074;2022-09-09T02:58:29;99970.72;;;19.65;72.25
64792;BME280;51226;47.504;19.074;2022-09-09T03:01:32;99975.09;;;19.66;72.33
64792;BME280;51226;47.504;19.074;2022-09-09T03:04:35;99985.75;;;19.55;72.70
64792;BME280;51226;47.504;19.074;2022-09-09T03:07:37;99974.31;;;19.51;72.48
64792;BME280;51226;47.504;19.074;2022-09-09T03:10:43;99985.78;;;19.49;72.19
64792;BME280;51226;47.504;19.074;2022-09-09T03:13:46;99989.31;;;19.46;72.01
64792;BME280;51226;47.504;19.074;2022-09-09T03:16:51;99993.72;;;19.47;71.57
64792;BME280;51226;47.504;19.074;2022-09-09T03:19:54;99999.00;;;19.47;71.28
64792;BME280;51226;47.504;19.074;2022-09-09T03:22:58;99998.12;;;19.47;71.65
64792;BME280;51226;47.504;19.074;2022-09-09T03:26:01;100006.06;;;19.51;71.22
64792;BME280;51226;47.504;19.074;2022-09-09T03:29:05;99999.94;;;19.41;71.61
64792;BME280;51226;47.504;19.074;2022-09-09T03:32:09;100005.22;;;19.41;71.86
64792;BME280;51226;47.504;19.074;2022-09-09T03:35:13;100012.28;;;19.36;72.11
64792;BME280;51226;47.504;19.074;2022-09-09T03:38:16;100010.53;;;19.32;72.38
64792;BME280;51226;47.504;19.074;2022-09-09T03:41:19;99999.97;;;19.31;72.58
64792;BME280;51226;47.504;19.074;2022-09-09T03:44:21;99999.09;;;19.32;72.75
64792;BME280;51226;47.504;19.074;2022-09-09T03:47:24;99999.97;;;19.29;72.95
64792;BME280;51226;47.504;19.074;2022-09-09T03:50:28;100004.38;;;19.29;73.02
64792;BME280;51226;47.504;19.074;2022-09-09T03:53:31;100002.66;;;19.24;73.12
64792;BME280;51226;47.504;19.074;2022-09-09T03:56:34;100011.47;;;19.22;73.00
64792;BME280;51226;47.504;19.074;2022-09-09T03:59:37;100027.31;;;19.17;73.14
64792;BME280;51226;47.504;19.074;2022-09-09T04:02:40;100022.91;;;19.21;73.25
64792;BME280;51226;47.504;19.074;2022-09-09T04:05:43;100008.81;;;19.16;73.24
64792;BME280;51226;47.504;19.074;2022-09-09T04:08:45;100011.47;;;19.16;73.23
64792;BME280;51226;47.504;19.074;2022-09-09T04:11:51;100017.63;;;19.21;73.34
64792;BME280;51226;47.504;19.074;2022-09-09T04:14:54;100016.75;;;19.16;73.43
64792;BME280;51226;47.504;19.074;2022-09-09T04:17:57;100017.66;;;19.15;73.46
64792;BME280;51226;47.504;19.074;2022-09-09T04:20:59;100013.25;;;19.17;73.25
64792;BME280;51226;47.504;19.074;2022-09-09T04:24:04;100018.53;;;19.17;73.09
64792;BME280;51226;47.504;19.074;2022-09-09T04:27:07;100022.94;;;19.15;72.98
64792;BME280;51226;47.504;19.074;2022-09-09T04:30:10;100019.41;;;19.16;72.71
64792;BME280;51226;47.504;19.074;2022-09-09T04:33:14;100016.75;;;19.16;72.54
64792;BME280;51226;47.504;19.074;2022-09-09T04:36:17;100008.81;;;19.22;71.47
64792;BME280;51226;47.504;19.074;2022-09-09T04:39:22;100011.47;;;19.19;71.42
64792;BME280;51226;47.504;19.074;2022-09-09T04:42:25;100011.47;;;19.22;71.00
64792;BME280;51226;47.504;19.074;2022-09-09T04:45:28;100015.81;;;19.29;70.71
64792;BME280;51226;47.504;19.074;2022-09-09T04:48:31;100014.97;;;19.25;70.97
64792;BME280;51226;47.504;19.074;2022-09-09T04:51:34;100008.81;;;19.25;71.01
64792;BME280;51226;47.504;19.074;2022-09-09T04:54:38;100007.03;;;19.21;71.18
64792;BME280;51226;47.504;19.074;2022-09-09T04:57:41;100008.81;;;19.25;71.24
64792;BME280;51226;47.504;19.074;2022-09-09T05:00:45;100004.38;;;19.32;70.94
64792;BME280;51226;47.504;19.074;2022-09-09T05:03:48;100007.00;;;19.35;70.61
64792;BME280;51226;47.504;19.074;2022-09-09T05:06:51;100014.91;;;19.39;70.52
64792;BME280;51226;47.504;19.074;2022-09-09T05:09:53;100020.16;;;19.55;70.01
64792;BME280;51226;47.504;19.074;2022-09-09T05:12:56;100020.19;;;19.46;70.21
64792;BME280;51226;47.504;19.074;2022-09-09T05:16:00;100021.97;;;19.42;70.61
64792;BME280;51226;47.504;19.074;2022-09-09T05:19:03;100021.91;;;19.54;70.08
64792;BME280;51226;47.504;19.074;2022-09-09T05:22:06;100027.19;;;19.53;70.30
64792;BME280;51226;47.504;19.074;2022-09-09T05:25:10;100018.38;;;19.58;70.23
64792;BME280;51226;47.504;19.074;2022-09-09T05:28:14;100019.19;;;19.71;69.85
64792;BME280;51226;47.504;19.074;2022-09-09T05:31:17;100015.62;;;19.80;69.72
64792;BME280;51226;47.504;19.074;2022-09-09T05:34:21;100024.41;;;19.91;69.37
64792;BME280;51226;47.504;19.074;2022-09-09T05:37:24;100026.09;;;20.00;68.84
64792;BME280;51226;47.504;19.074;2022-09-09T05:40:26;100022.50;;;20.09;68.52
64792;BME280;51226;47.504;19.074;2022-09-09T05:43:29;100032.12;;;20.22;67.89
64792;BME280;51226;47.504;19.074;2022-09-09T05:46:31;100033.78;;;20.35;67.26
64792;BME280;51226;47.504;19.074;2022-09-09T05:49:34;100034.59;;;20.45;66.69
64792;BME280;51226;47.504;19.074;2022-09-09T05:52:37;100031.81;;;20.61;66.32
64792;BME280;51226;47.504;19.074;2022-09-09T05:55:40;100032.72;;;20.63;65.86
64792;BME280;51226;47.504;19.074;2022-09-09T05:58:42;100029.19;;;20.64;65.87
64792;BME280;51226;47.504;19.074;2022-09-09T06:01:52;100028.28;;;20.60;65.73
64792;BME280;51226;47.504;19.074;2022-09-09T06:04:56;100030.87;;;20.71;65.58
64792;BME280;51226;47.504;19.074;2022-09-09T06:08:02;100035.12;;;20.89;64.76
64792;BME280;51226;47.504;19.074;2022-09-09T06:11:11;100044.72;;;21.01;63.68
64792;BME280;51226;47.504;19.074;2022-09-09T06:14:14;100035.06;;;20.97;63.24
64792;BME280;51226;47.504;19.074;2022-09-09T06:17:19;100042.00;;;21.07;63.34
64792;BME280;51226;47.504;19.074;2022-09-09T06:20:23;100039.38;;;21.07;63.47
64792;BME280;51226;47.504;19.074;2022-09-09T06:23:29;100031.84;;;21.44;61.99
64792;BME280;51226;47.504;19.074;2022-09-09T06:26:33;100037.97;;;21.53;61.63
64792;BME280;51226;47.504;19.074;2022-09-09T06:29:38;100037.13;;;21.46;61.82
64792;BME280;51226;47.504;19.074;2022-09-09T06:32:43;100037.13;;;21.46;61.98
64792;BME280;51226;47.504;19.074;2022-09-09T06:35:51;100036.09;;;21.62;61.88
64792;BME280;51226;47.504;19.074;2022-09-09T06:38:56;100039.16;;;21.97;60.71
64792;BME280;51226;47.504;19.074;2022-09-09T06:42:02;100033.56;;;22.17;60.04
64792;BME280;51226;47.504;19.074;2022-09-09T06:45:08;100036.81;;;22.36;59.33
64792;BME280;51226;47.504;19.074;2022-09-09T06:48:12;100029.38;;;22.56;58.37
64792;BME280;51226;47.504;19.074;2022-09-09T06:54:19;100037.78;;;22.83;57.05
64792;BME280;51226;47.504;19.074;2022-09-09T06:57:22;100036.69;;;22.95;56.88
64792;BME280;51226;47.504;19.074;2022-09-09T07:00:43;100035.59;;;23.05;56.43
64792;BME280;51226;47.504;19.074;2022-09-09T07:03:53;100049.66;;;23.13;56.34
64792;BME280;51226;47.504;19.074;2022-09-09T07:06:57;100046.38;;;23.46;55.18
64792;BME280;51226;47.504;19.074;2022-09-09T07:10:02;100054.44;;;23.43;55.47
64792;BME280;51226;47.504;19.074;2022-09-09T07:13:06;100058.28;;;23.28;55.71
64792;BME280;51226;47.504;19.074;2022-09-09T07:16:10;100057.44;;;23.26;55.97
64792;BME280;51226;47.504;19.074;2022-09-09T07:19:26;100058.34;;;23.23;56.16
64792;BME280;51226;47.504;19.074;2022-09-09T07:22:29;100059.41;;;23.15;56.59
64792;BME280;51226;47.504;19.074;2022-09-09T07:25:32;100051.84;;;23.38;56.27
64792;BME280;51226;47.504;19.074;2022-09-09T07:28:37;100051.03;;;23.78;55.02
64792;BME280;51226;47.504;19.074;2022-09-09T07:31:40;100053.16;;;24.04;53.89
64792;BME280;51226;47.504;19.074;2022-09-09T07:34:44;100063.34;;;24.25;53.83
64792;BME280;51226;47.504;19.074;2022-09-09T07:37:48;100066.22;;;24.53;52.60
64792;BME280;51226;47.504;19.074;2022-09-09T07:40:53;100064.03;;;24.70;51.97
64792;BME280;51226;47.504;19.074;2022-09-09T07:43:58;100065.13;;;25.30;50.44
64792;BME280;51226;47.504;19.074;2022-09-09T07:47:01;100066.12;;;25.87;49.30
64792;BME280;51226;47.504;19.074;2022-09-09T07:50:05;100068.28;;;26.34;48.19
64792;BME280;51226;47.504;19.074;2022-09-09T07:53:10;100073.97;;;26.52;47.34
64792;BME280;51226;47.504;19.074;2022-09-09T07:56:14;100071.91;;;26.60;45.12
64792;BME280;51226;47.504;19.074;2022-09-09T07:59:21;100070.25;;;26.56;45.77
64792;BME280;51226;47.504;19.074;2022-09-09T08:02:24;100074.03;;;27.04;45.39
64792;BME280;51226;47.504;19.074;2022-09-09T08:05:27;100062.66;;;27.71;43.62
64792;BME280;51226;47.504;19.074;2022-09-09T08:08:30;100069.56;;;28.02;42.55
64792;BME280;51226;47.504;19.074;2022-09-09T08:11:33;100073.41;;;28.40;41.08
64792;BME280;51226;47.504;19.074;2022-09-09T08:14:40;100069.94;;;28.81;40.37
64792;BME280;51226;47.504;19.074;2022-09-09T08:17:43;100066.53;;;29.18;39.66
64792;BME280;51226;47.504;19.074;2022-09-09T08:20:48;100058.97;;;29.87;38.10
64792;BME280;51226;47.504;19.074;2022-09-09T08:23:51;100065.34;;;30.41;37.30
64792;BME280;51226;47.504;19.074;2022-09-09T08:26:59;100064.28;;;30.63;36.83
64792;BME280;51226;47.504;19.074;2022-09-09T08:30:02;100066.72;;;31.04;35.32
64792;BME280;51226;47.504;19.074;2022-09-09T08:33:05;100055.91;;;30.87;35.71
64792;BME280;51226;47.504;19.074;2022-09-09T08:36:10;100057.03;;;31.17;35.15
64792;BME280;51226;47.504;19.074;2022-09-09T08:39:15;100058.03;;;31.66;34.64
64792;BME280;51226;47.504;19.074;2022-09-09T08:43:04;100051.63;;;32.00;33.14
64792;BME280;51226;47.504;19.074;2022-09-09T08:45:52;100054.00;;;32.38;33.12
64792;BME280;51226;47.504;19.074;2022-09-09T08:49:01;100066.19;;;32.92;32.11
64792;BME280;51226;47.504;19.074;2022-09-09T08:52:12;100057.31;;;33.63;31.17
64792;BME280;51226;47.504;19.074;2022-09-09T08:58:49;100056.97;;;34.38;29.51
64792;BME280;51226;47.504;19.074;2022-09-09T09:05:02;100053.81;;;34.59;28.50
64792;BME280;51226;47.504;19.074;2022-09-09T09:11:12;100053.66;;;35.28;28.01
64792;BME280;51226;47.504;19.074;2022-09-09T09:14:18;100051.34;;;35.86;27.09
64792;BME280;51226;47.504;19.074;2022-09-09T09:17:26;100045.59;;;36.14;26.39
64792;BME280;51226;47.504;19.074;2022-09-09T09:20:50;100052.09;;;36.73;25.51
64792;BME280;51226;47.504;19.074;2022-09-09T09:23:55;100053.78;;;36.98;25.61
64792;BME280;51226;47.504;19.074;2022-09-09T09:27:43;100051.13;;;37.43;24.61
64792;BME280;51226;47.504;19.074;2022-09-09T09:30:31;100039.16;;;37.80;24.06
64792;BME280;51226;47.504;19.074;2022-09-09T09:36:52;100021.47;;;37.74;23.58
64792;BME280;51226;47.504;19.074;2022-09-09T09:39:55;100015.38;;;37.93;23.79
64792;BME280;51226;47.504;19.074;2022-09-09T09:43:06;100016.56;;;38.23;23.10
64792;BME280;51226;47.504;19.074;2022-09-09T09:46:21;100015.97;;;38.41;23.07
64792;BME280;51226;47.504;19.074;2022-09-09T09:49:31;100012.31;;;38.30;22.87
64792;BME280;51226;47.504;19.074;2022-09-09T09:52:35;100020.81;;;37.25;22.94
64792;BME280;51226;47.504;19.074;2022-09-09T09:55:44;100023.78;;;35.53;25.10
64792;BME280;51226;47.504;19.074;2022-09-09T09:58:53;100019.78;;;35.20;25.46
64792;BME280;51226;47.504;19.074;2022-09-09T10:02:25;100014.19;;;33.89;27.05
64792;BME280;51226;47.504;19.074;2022-09-09T10:05:30;100030.72;;;32.36;29.44
64792;BME280;51226;47.504;19.074;2022-09-09T10:08:44;100029.25;;;33.07;29.64
64792;BME280;51226;47.504;19.074;2022-09-09T10:12:36;100016.75;;;34.59;27.99
64792;BME280;51226;47.504;19.074;2022-09-09T10:21:57;100021.78;;;35.94;24.69
64792;BME280;51226;47.504;19.074;2022-09-09T10:28:41;100008.81;;;37.17;24.14
64792;BME280;51226;47.504;19.074;2022-09-09T10:38:05;99998.72;;;38.51;21.82
64792;BME280;51226;47.504;19.074;2022-09-09T10:41:19;99996.09;;;39.03;21.70
64792;BME280;51226;47.504;19.074;2022-09-09T10:47:41;100003.22;;;39.16;20.61
64792;BME280;51226;47.504;19.074;2022-09-09T10:51:28;100002.63;;;39.12;21.00
64792;BME280;51226;47.504;19.074;2022-09-09T10:57:41;100002.41;;;39.25;19.91
64792;BME280;51226;47.504;19.074;2022-09-09T11:00:47;99999.88;;;38.91;20.31
64792;BME280;51226;47.504;19.074;2022-09-09T11:03:57;99992.63;;;39.01;20.37
64792;BME280;51226;47.504;19.074;2022-09-09T11:07:05;99998.50;;;38.97;20.34
64792;BME280;51226;47.504;19.074;2022-09-09T11:10:24;99998.63;;;38.74;20.46
64792;BME280;51226;47.504;19.074;2022-09-09T11:13:41;99990.91;;;38.79;20.73
64792;BME280;51226;47.504;19.074;2022-09-09T11:17:06;99991.03;;;38.78;20.63
64792;BME280;51226;47.504;19.074;2022-09-09T11:20:12;99985.72;;;38.23;21.40
64792;BME280;51226;47.504;19.074;2022-09-09T11:23:20;99983.66;;;38.15;21.54
64792;BME280;51226;47.504;19.074;2022-09-09T11:26:30;99981.69;;;38.38;21.36
64792;BME280;51226;47.504;19.074;2022-09-09T11:29:44;99986.47;;;38.46;21.18
64792;BME280;51226;47.504;19.074;2022-09-09T11:36:29;99979.19;;;38.46;21.13
64792;BME280;51226;47.504;19.074;2022-09-09T11:43:03;99984.97;;;38.21;21.24
64792;BME280;51226;47.504;19.074;2022-09-09T11:46:17;99978.78;;;37.75;21.43
64792;BME280;51226;47.504;19.074;2022-09-09T11:52:38;99958.38;;;37.47;22.21
64792;BME280;51226;47.504;19.074;2022-09-09T11:55:42;99962.00;;;37.36;22.29
64792;BME280;51226;47.504;19.074;2022-09-09T11:58:53;99969.91;;;36.69;22.90
64792;BME280;51226;47.504;19.074;2022-09-09T12:02:00;99965.34;;;36.10;23.80
64792;BME280;51226;47.504;19.074;2022-09-09T12:05:12;99965.47;;;36.09;23.40
64792;BME280;51226;47.504;19.074;2022-09-09T12:08:24;99959.62;;;36.02;23.92
64792;BME280;51226;47.504;19.074;2022-09-09T12:11:32;99954.75;;;36.43;23.59
64792;BME280;51226;47.504;19.074;2022-09-09T12:14:42;99958.31;;;36.79;22.82
64792;BME280;51226;47.504;19.074;2022-09-09T12:17:49;99965.91;;;36.51;23.08
64792;BME280;51226;47.504;19.074;2022-09-09T12:21:20;99978.16;;;35.71;24.02
64792;BME280;51226;47.504;19.074;2022-09-09T12:24:29;99976.06;;;34.86;25.10
64792;BME280;51226;47.504;19.074;2022-09-09T12:27:35;99977.31;;;34.55;25.60
64792;BME280;51226;47.504;19.074;2022-09-09T12:33:49;99966.31;;;34.84;25.30
64792;BME280;51226;47.504;19.074;2022-09-09T12:36:56;99956.44;;;34.70;25.55
64792;BME280;51226;47.504;19.074;2022-09-09T12:40:02;99944.84;;;34.81;24.69
64792;BME280;51226;47.504;19.074;2022-09-09T12:43:18;99939.19;;;35.10;24.82
64792;BME280;51226;47.504;19.074;2022-09-09T12:49:47;99941.50;;;35.66;23.74
64792;BME280;51226;47.504;19.074;2022-09-09T12:52:52;99934.22;;;35.29;23.88
64792;BME280;51226;47.504;19.074;2022-09-09T12:56:03;99931.06;;;35.35;23.77
64792;BME280;51226;47.504;19.074;2022-09-09T12:59:17;99920.84;;;35.39;24.43
64792;BME280;51226;47.504;19.074;2022-09-09T13:02:25;99923.09;;;35.45;23.67
64792;BME280;51226;47.504;19.074;2022-09-09T13:05:34;99918.94;;;34.89;24.19
64792;BME280;51226;47.504;19.074;2022-09-09T13:08:37;99914.06;;;34.95;24.85
64792;BME280;51226;47.504;19.074;2022-09-09T13:11:41;99906.22;;;35.16;24.61
64792;BME280;51226;47.504;19.074;2022-09-09T13:14:46;99895.16;;;35.32;24.25
64792;BME280;51226;47.504;19.074;2022-09-09T13:18:02;99898.41;;;35.37;23.85
64792;BME280;51226;47.504;19.074;2022-09-09T13:21:08;99893.00;;;35.11;24.11
64792;BME280;51226;47.504;19.074;2022-09-09T13:24:24;99892.94;;;34.74;25.10
64792;BME280;51226;47.504;19.074;2022-09-09T13:27:29;99893.44;;;34.54;25.58
64792;BME280;51226;47.504;19.074;2022-09-09T13:30:34;99887.88;;;34.29;25.99
64792;BME280;51226;47.504;19.074;2022-09-09T13:33:41;99884.56;;;33.99;26.23
64792;BME280;51226;47.504;19.074;2022-09-09T13:36:46;99888.63;;;33.64;26.80
64792;BME280;51226;47.504;19.074;2022-09-09T13:39:54;99887.37;;;33.28;27.59
64792;BME280;51226;47.504;19.074;2022-09-09T13:43:00;99885.63;;;32.98;27.80
64792;BME280;51226;47.504;19.074;2022-09-09T13:46:21;99884.41;;;32.59;27.94
64792;BME280;51226;47.504;19.074;2022-09-09T13:49:30;99883.06;;;32.07;28.67
64792;BME280;51226;47.504;19.074;2022-09-09T13:52:33;99881.38;;;31.43;28.76
64792;BME280;51226;47.504;19.074;2022-09-09T13:55:36;99886.91;;;31.24;30.05
64792;BME280;51226;47.504;19.074;2022-09-09T13:58:38;99870.91;;;31.20;29.80
64792;BME280;51226;47.504;19.074;2022-09-09T14:01:41;99869.34;;;31.16;29.98
64792;BME280;51226;47.504;19.074;2022-09-09T14:04:44;99871.09;;;31.33;29.35
64792;BME280;51226;47.504;19.074;2022-09-09T14:07:47;99866.22;;;31.40;29.12
64792;BME280;51226;47.504;19.074;2022-09-09T14:10:54;99854.94;;;31.65;28.80
64792;BME280;51226;47.504;19.074;2022-09-09T14:13:57;99854.16;;;31.63;28.18
64792;BME280;51226;47.504;19.074;2022-09-09T14:17:03;99849.88;;;31.27;28.17
64792;BME280;51226;47.504;19.074;2022-09-09T14:20:09;99845.81;;;30.87;29.47
64792;BME280;51226;47.504;19.074;2022-09-09T14:23:14;99841.44;;;30.68;29.88
64792;BME280;51226;47.504;19.074;2022-09-09T14:26:17;99842.81;;;30.59;29.71
64792;BME280;51226;47.504;19.074;2022-09-09T14:29:21;99844.28;;;30.49;29.76
64792;BME280;51226;47.504;19.074;2022-09-09T14:32:24;99845.12;;;30.32;30.01
64792;BME280;51226;47.504;19.074;2022-09-09T14:35:27;99852.09;;;30.19;30.26
64792;BME280;51226;47.504;19.074;2022-09-09T14:38:30;99844.81;;;30.03;30.75
64792;BME280;51226;47.504;19.074;2022-09-09T14:41:33;99847.91;;;29.96;31.35
64792;BME280;51226;47.504;19.074;2022-09-09T14:44:36;99838.72;;;30.00;31.08
64792;BME280;51226;47.504;19.074;2022-09-09T14:47:40;99835.50;;;30.10;29.99
64792;BME280;51226;47.504;19.074;2022-09-09T14:50:43;99835.56;;;29.91;29.84
64792;BME280;51226;47.504;19.074;2022-09-09T14:53:46;99834.44;;;29.78;29.72
64792;BME280;51226;47.504;19.074;2022-09-09T14:56:49;99833.03;;;29.52;30.95
64792;BME280;51226;47.504;19.074;2022-09-09T14:59:51;99833.50;;;29.43;30.97
64792;BME280;51226;47.504;19.074;2022-09-09T15:02:56;99841.13;;;29.33;31.02
64792;BME280;51226;47.504;19.074;2022-09-09T15:06:08;99843.09;;;29.29;31.46
64792;BME280;51226;47.504;19.074;2022-09-09T15:09:12;99837.88;;;29.26;32.20
64792;BME280;51226;47.504;19.074;2022-09-09T15:12:15;99839.13;;;29.19;33.14
64792;BME280;51226;47.504;19.074;2022-09-09T15:15:17;99837.78;;;29.09;34.01
64792;BME280;51226;47.504;19.074;2022-09-09T15:18:20;99844.69;;;28.95;33.69
64792;BME280;51226;47.504;19.074;2022-09-09T15:21:24;99840.59;;;28.87;33.46
64792;BME280;51226;47.504;19.074;2022-09-09T15:24:27;99845.38;;;28.80;33.60
64792;BME280;51226;47.504;19.074;2022-09-09T15:27:29;99847.41;;;28.75;34.20
64792;BME280;51226;47.504;19.074;2022-09-09T15:30:36;99843.91;;;28.73;34.74
64792;BME280;51226;47.504;19.074;2022-09-09T15:33:40;99843.91;;;28.73;35.00
64792;BME280;51226;47.504;19.074;2022-09-09T15:36:44;99843.19;;;28.69;34.86
64792;BME280;51226;47.504;19.074;2022-09-09T15:39:48;99844.25;;;28.65;34.65
64792;BME280;51226;47.504;19.074;2022-09-09T15:42:51;99835.75;;;28.55;30.21
64792;BME280;51226;47.504;19.074;2022-09-09T15:45:56;99836.13;;;28.27;32.23
64792;BME280;51226;47.504;19.074;2022-09-09T15:49:35;99838.56;;;28.11;34.17
64792;BME280;51226;47.504;19.074;2022-09-09T15:52:31;99843.75;;;27.95;34.65
64792;BME280;51226;47.504;19.074;2022-09-09T15:55:37;99844.62;;;27.73;33.32
64792;BME280;51226;47.504;19.074;2022-09-09T15:58:40;99839.13;;;27.54;34.00
64792;BME280;51226;47.504;19.074;2022-09-09T16:01:45;99839.47;;;27.47;34.42
64792;BME280;51226;47.504;19.074;2022-09-09T16:04:48;99836.09;;;27.42;34.77
64792;BME280;51226;47.504;19.074;2022-09-09T16:07:50;99840.44;;;27.44;33.66
64792;BME280;51226;47.504;19.074;2022-09-09T16:10:54;99843.03;;;27.24;33.83
64792;BME280;51226;47.504;19.074;2022-09-09T16:13:57;99847.97;;;27.11;35.67
64792;BME280;51226;47.504;19.074;2022-09-09T16:17:01;99855.50;;;27.01;34.54
64792;BME280;51226;47.504;19.074;2022-09-09T16:20:04;99861.22;;;26.92;35.27
64792;BME280;51226;47.504;19.074;2022-09-09T16:23:09;99860.56;;;26.85;36.24
64792;BME280;51226;47.504;19.074;2022-09-09T16:26:15;99862.59;;;26.78;37.02
64792;BME280;51226;47.504;19.074;2022-09-09T16:29:21;99860.97;;;26.74;37.68
64792;BME280;51226;47.504;19.074;2022-09-09T16:32:24;99863.00;;;26.68;38.59
64792;BME280;51226;47.504;19.074;2022-09-09T16:35:26;99856.09;;;26.60;39.04
64792;BME280;51226;47.504;19.074;2022-09-09T16:38:29;99861.72;;;26.53;39.36
64792;BME280;51226;47.504;19.074;2022-09-09T16:41:32;99860.19;;;26.46;39.76
64792;BME280;51226;47.504;19.074;2022-09-09T16:44:35;99859.53;;;26.39;40.07
64792;BME280;51226;47.504;19.074;2022-09-09T16:47:38;99846.53;;;26.30;40.22
64792;BME280;51226;47.504;19.074;2022-09-09T16:50:43;99857.59;;;26.19;40.34
64792;BME280;51226;47.504;19.074;2022-09-09T16:53:46;99850.81;;;26.09;40.23
64792;BME280;51226;47.504;19.074;2022-09-09T16:56:49;99850.34;;;25.96;40.25
64792;BME280;51226;47.504;19.074;2022-09-09T16:59:51;99856.09;;;25.83;40.36
64792;BME280;51226;47.504;19.074;2022-09-09T17:02:56;99860.97;;;25.70;40.38
64792;BME280;51226;47.504;19.074;2022-09-09T17:05:59;99870.19;;;25.60;40.75
64792;BME280;51226;47.504;19.074;2022-09-09T17:09:08;99861.56;;;25.52;41.04
64792;BME280;51226;47.504;19.074;2022-09-09T17:12:11;99867.16;;;25.44;41.28
64792;BME280;51226;47.504;19.074;2022-09-09T17:15:16;99870.87;;;25.39;41.29
64792;BME280;51226;47.504;19.074;2022-09-09T17:18:20;99874.69;;;25.31;41.33
64792;BME280;51226;47.504;19.074;2022-09-09T17:21:23;99874.81;;;25.25;41.57
64792;BME280;51226;47.504;19.074;2022-09-09T17:24:27;99871.59;;;25.14;41.75
64792;BME280;51226;47.504;19.074;2022-09-09T17:27:31;99870.91;;;25.07;42.04
64792;BME280;51226;47.504;19.074;2022-09-09T17:30:34;99879.22;;;24.98;42.34
64792;BME280;51226;47.504;19.074;2022-09-09T17:33:37;99867.94;;;24.88;42.96
64792;BME280;51226;47.504;19.074;2022-09-09T17:36:41;99877.91;;;24.82;43.10
64792;BME280;51226;47.504;19.074;2022-09-09T17:39:43;99872.78;;;24.74;43.53
64792;BME280;51226;47.504;19.074;2022-09-09T17:42:46;99875.59;;;24.69;43.80